Time;durP1;ratioP1;P1;durP2;ratioP2;P2;SDS_P1;SDS_P2;PMS_P1;PMS_P2;Temp;Humidity;BMP_temperature;BMP_pressure;BME280_temperature;BME280_humidity;BME280_pressure;Samples;Min_cycle;Max_cycle;Signal;HPM_P1;HPM_P2
2023/04/23 00:00:11;;;;;;;;;;;9.00;99.90;;;;;;5047998;28;19991;-49
2023/04/23 00:02:37;;;;;;;;;;;9.00;99.90;;;;;;5039528;28;19934;-52
2023/04/23 00:05:04;;;;;;;;;;;8.90;99.90;;;;;;5061588;28;19981;-54
2023/04/23 00:07:31;;;;;;;;;;;8.90;99.90;;;;;;5054809;28;20448;-50
2023/04/23 00:09:58;;;;;;;;;;;8.90;99.90;;;;;;5039919;28;20036;-50
2023/04/23 00:12:26;;;;;;;;;;;8.80;99.90;;;;;;5041201;28;19978;-51
2023/04/23 00:14:53;;;;;;;;;;;8.80;99.90;;;;;;5070998;28;20371;-50
2023/04/23 00:17:20;;;;;;;;;;;8.80;99.90;;;;;;5056077;28;20023;-54
2023/04/23 00:19:47;;;;;;;;;;;8.70;99.90;;;;;;5048066;28;20362;-52
2023/04/23 00:22:15;;;;;;;;;;;8.70;99.90;;;;;;5064193;28;19945;-55
2023/04/23 00:24:42;;;;;;;;;;;8.70;99.90;;;;;;5055845;28;19935;-51
2023/04/23 00:27:09;;;;;;;;;;;8.70;99.90;;;;;;5056576;28;20026;-54
2023/04/23 00:29:36;;;;;;;;;;;8.70;99.90;;;;;;5057902;28;20055;-50
2023/04/23 00:32:03;;;;;;;;;;;8.70;99.90;;;;;;5068363;28;19978;-54
2023/04/23 00:34:30;;;;;;;;;;;8.60;99.90;;;;;;5052759;28;20067;-47
2023/04/23 00:36:56;;;;;;;;;;;8.70;99.90;;;;;;5055862;28;20366;-55
2023/04/23 00:39:23;;;;;;;;;;;8.70;99.90;;;;;;5035722;28;19976;-51
2023/04/23 00:41:50;;;;;;;;;;;8.60;99.90;;;;;;5051606;28;20028;-52
2023/04/23 00:44:16;;;;;;;;;;;8.60;99.90;;;;;;5073699;28;19936;-53
2023/04/23 00:46:44;;;;;;;;;;;8.60;99.90;;;;;;5064961;28;19968;-44
2023/04/23 00:49:11;;;;;;;;;;;8.60;99.90;;;;;;5036940;28;20102;-50
2023/04/23 00:51:37;;;;;;;;;;;8.60;99.90;;;;;;5063984;28;19988;-53
2023/04/23 00:54:04;;;;;;;;;;;8.60;99.90;;;;;;5049434;28;20024;-55
2023/04/23 00:56:31;;;;;;;;;;;8.50;99.90;;;;;;5047904;28;20023;-52
2023/04/23 00:58:57;;;;;;;;;;;8.50;99.90;;;;;;5035414;28;20371;-51
2023/04/23 01:01:24;;;;;;;;;;;8.40;99.90;;;;;;5062020;28;20019;-50
2023/04/23 01:03:52;;;;;;;;;;;8.40;99.90;;;;;;5046068;28;19939;-49
2023/04/23 01:06:20;;;;;;;;;;;8.40;99.90;;;;;;5035494;28;19940;-50
2023/04/23 01:08:46;;;;;;;;;;;8.30;99.90;;;;;;5062754;28;19960;-52
2023/04/23 01:11:14;;;;;;;;;;;8.40;99.90;;;;;;5055170;28;19944;-50
2023/04/23 01:13:41;;;;;;;;;;;8.30;99.90;;;;;;5055054;28;20285;-49
2023/04/23 01:16:08;;;;;;;;;;;8.30;99.90;;;;;;5068798;28;19990;-50
2023/04/23 01:18:34;;;;;;;;;;;8.20;99.90;;;;;;5049340;28;19953;-53
2023/04/23 01:21:03;;;;;;;;;;;8.20;99.90;;;;;;5035001;28;20438;-54
2023/04/23 01:23:32;;;;;;;;;;;8.20;99.90;;;;;;5063016;28;20041;-51
2023/04/23 01:25:58;;;;;;;;;;;8.20;99.90;;;;;;5054680;28;19976;-53
2023/04/23 01:28:25;;;;;;;;;;;8.20;99.90;;;;;;5054847;28;20028;-51
2023/04/23 01:30:52;;;;;;;;;;;8.20;99.90;;;;;;5054653;28;20053;-53
2023/04/23 01:33:18;;;;;;;;;;;8.20;99.90;;;;;;5061463;28;19980;-52
2023/04/23 01:35:46;;;;;;;;;;;8.20;99.90;;;;;;5061556;28;19932;-50
2023/04/23 01:38:13;;;;;;;;;;;8.20;99.90;;;;;;5074400;28;19936;-53
2023/04/23 01:40:41;;;;;;;;;;;8.20;99.90;;;;;;5074532;28;19998;-52
2023/04/23 01:43:07;;;;;;;;;;;8.20;99.90;;;;;;5055602;28;20036;-52
2023/04/23 01:45:34;;;;;;;;;;;8.20;99.90;;;;;;5053319;28;19978;-55
2023/04/23 01:48:00;;;;;;;;;;;8.20;99.90;;;;;;5064186;28;19963;-51
2023/04/23 01:50:28;;;;;;;;;;;8.20;99.90;;;;;;5060066;28;20004;-52
2023/04/23 01:52:55;;;;;;;;;;;8.30;99.90;;;;;;5054084;28;20343;-47
2023/04/23 01:55:22;;;;;;;;;;;8.20;99.90;;;;;;5053474;28;20006;-48
2023/04/23 01:57:50;;;;;;;;;;;8.30;99.90;;;;;;5054298;28;19936;-47
2023/04/23 02:00:18;;;;;;;;;;;8.20;99.90;;;;;;5052520;28;19935;-50
2023/04/23 02:02:44;;;;;;;;;;;8.30;99.90;;;;;;5034732;28;20007;-54
2023/04/23 02:05:12;;;;;;;;;;;8.20;99.90;;;;;;5061216;28;20407;-49
2023/04/23 02:07:38;;;;;;;;;;;8.30;99.90;;;;;;5046269;28;20026;-52
2023/04/23 02:10:05;;;;;;;;;;;8.20;99.90;;;;;;5049618;28;19959;-48
2023/04/23 02:12:32;;;;;;;;;;;8.20;99.90;;;;;;5046861;28;19940;-50
2023/04/23 02:15:00;;;;;;;;;;;8.20;99.90;;;;;;5043086;28;20513;-54
2023/04/23 02:17:28;;;;;;;;;;;8.20;99.90;;;;;;5049305;28;20746;-53
2023/04/23 02:19:54;;;;;;;;;;;8.20;99.90;;;;;;5073448;28;20360;-52
2023/04/23 02:22:23;;;;;;;;;;;8.20;99.90;;;;;;5072797;28;19935;-49
2023/04/23 02:24:50;;;;;;;;;;;8.10;99.90;;;;;;5065612;28;20003;-49
2023/04/23 02:27:17;;;;;;;;;;;8.20;99.90;;;;;;5053779;28;20386;-53
2023/04/23 02:29:44;;;;;;;;;;;8.10;99.90;;;;;;5052431;28;19963;-54
2023/04/23 02:32:12;;;;;;;;;;;8.10;99.90;;;;;;5068846;28;19938;-53
2023/04/23 02:34:39;;;;;;;;;;;8.10;99.90;;;;;;5033699;28;19974;-51
2023/04/23 02:37:06;;;;;;;;;;;8.10;99.90;;;;;;5049004;28;19990;-53
2023/04/23 02:39:32;;;;;;;;;;;8.10;99.90;;;;;;5033944;28;19980;-56
2023/04/23 02:41:59;;;;;;;;;;;8.10;99.90;;;;;;5043009;28;20437;-53
2023/04/23 02:44:26;;;;;;;;;;;8.00;99.90;;;;;;5061902;28;19937;-51
2023/04/23 02:46:52;;;;;;;;;;;8.00;99.90;;;;;;5072150;28;20406;-52
2023/04/23 02:49:20;;;;;;;;;;;8.00;99.90;;;;;;5051616;28;19952;-45
2023/04/23 02:51:47;;;;;;;;;;;8.00;99.90;;;;;;5047089;28;20366;-53
2023/04/23 02:54:14;;;;;;;;;;;8.00;99.90;;;;;;5046955;28;19967;-49
2023/04/23 02:56:40;;;;;;;;;;;7.90;99.90;;;;;;5048829;28;19937;-51
2023/04/23 02:59:07;;;;;;;;;;;7.90;99.90;;;;;;5067830;28;19938;-47
2023/04/23 03:01:33;;;;;;;;;;;7.90;99.90;;;;;;5049869;28;20027;-51
2023/04/23 03:04:00;;;;;;;;;;;7.90;99.90;;;;;;5052671;28;20344;-46
2023/04/23 03:06:28;;;;;;;;;;;7.90;99.90;;;;;;5072787;28;19943;-48
2023/04/23 03:08:55;;;;;;;;;;;7.80;99.90;;;;;;5060711;28;20237;-53
2023/04/23 03:11:22;;;;;;;;;;;7.80;99.90;;;;;;5055458;28;19955;-54
2023/04/23 03:13:49;;;;;;;;;;;7.80;99.90;;;;;;5071914;28;20239;-51
2023/04/23 03:16:15;;;;;;;;;;;7.80;99.90;;;;;;5048142;28;20041;-50
2023/04/23 03:18:42;;;;;;;;;;;7.70;99.90;;;;;;5032582;28;19974;-52
2023/04/23 03:21:08;;;;;;;;;;;7.70;99.90;;;;;;5032577;28;19991;-52
2023/04/23 03:23:36;;;;;;;;;;;7.70;99.90;;;;;;5046649;28;19986;-52
2023/04/23 03:26:03;;;;;;;;;;;7.60;99.90;;;;;;5072724;28;20026;-49
2023/04/23 03:28:30;;;;;;;;;;;7.60;99.90;;;;;;5061131;28;19937;-49
2023/04/23 03:30:56;;;;;;;;;;;7.60;99.90;;;;;;5051154;28;20042;-52
2023/04/23 03:33:23;;;;;;;;;;;7.60;99.90;;;;;;5032569;28;19989;-52
2023/04/23 03:35:50;;;;;;;;;;;7.60;99.90;;;;;;5048145;28;19979;-53
2023/04/23 03:38:17;;;;;;;;;;;7.60;99.90;;;;;;5047383;28;19937;-52
2023/04/23 03:40:44;;;;;;;;;;;7.60;99.90;;;;;;5032696;28;20030;-50
2023/04/23 03:43:11;;;;;;;;;;;7.70;99.90;;;;;;5057768;28;19980;-48
2023/04/23 03:45:38;;;;;;;;;;;7.70;99.90;;;;;;5051241;28;20602;-49
2023/04/23 03:48:04;;;;;;;;;;;7.70;99.90;;;;;;5051671;28;19939;-49
2023/04/23 03:50:33;;;;;;;;;;;7.70;99.90;;;;;;5069926;28;19948;-48
2023/04/23 03:53:00;;;;;;;;;;;7.70;99.90;;;;;;5072444;28;19940;-50
2023/04/23 03:55:27;;;;;;;;;;;7.80;99.90;;;;;;5072384;28;19986;-51
2023/04/23 03:57:55;;;;;;;;;;;7.70;99.90;;;;;;5070059;28;20442;-54
2023/04/23 04:00:21;;;;;;;;;;;7.70;99.90;;;;;;5065589;28;20027;-51
2023/04/23 04:02:48;;;;;;;;;;;7.70;99.90;;;;;;5052090;28;19938;-52
2023/04/23 04:05:14;;;;;;;;;;;7.80;99.90;;;;;;5051026;28;20341;-52
2023/04/23 04:07:42;;;;;;;;;;;7.70;99.90;;;;;;5047861;28;20380;-53
2023/04/23 04:10:09;;;;;;;;;;;7.80;99.90;;;;;;5046535;28;20036;-54
2023/04/23 04:12:35;;;;;;;;;;;7.80;99.90;;;;;;5035682;28;19989;-49
2023/04/23 04:15:03;;;;;;;;;;;7.90;99.90;;;;;;5060468;28;19941;-51
2023/04/23 04:17:30;;;;;;;;;;;7.90;99.90;;;;;;5053500;28;19921;-51
2023/04/23 04:19:57;;;;;;;;;;;7.90;99.90;;;;;;5051702;28;19965;-52
2023/04/23 04:22:24;;;;;;;;;;;7.90;99.90;;;;;;5049337;28;19994;-53
2023/04/23 04:24:51;;;;;;;;;;;7.90;99.90;;;;;;5049165;28;19943;-52
2023/04/23 04:27:18;;;;;;;;;;;7.90;99.90;;;;;;5054233;28;19950;-49
2023/04/23 04:29:44;;;;;;;;;;;8.00;99.90;;;;;;5070778;28;19940;-51
2023/04/23 04:32:12;;;;;;;;;;;7.90;99.90;;;;;;5070287;28;20044;-53
2023/04/23 04:34:39;;;;;;;;;;;7.90;99.90;;;;;;5047505;28;19989;-49
2023/04/23 04:37:06;;;;;;;;;;;8.00;99.90;;;;;;5050779;28;19991;-49
2023/04/23 04:39:33;;;;;;;;;;;8.00;99.90;;;;;;5050005;28;19980;-51
2023/04/23 04:42:01;;;;;;;;;;;8.00;99.90;;;;;;5067658;28;19983;-50
2023/04/23 04:44:29;;;;;;;;;;;8.00;99.90;;;;;;5050188;28;19940;-48
2023/04/23 04:46:55;;;;;;;;;;;8.00;99.90;;;;;;5050097;28;19942;-50
2023/04/23 04:49:23;;;;;;;;;;;8.00;99.90;;;;;;5052452;28;19990;-49
2023/04/23 04:51:50;;;;;;;;;;;8.10;99.90;;;;;;5053942;28;19996;-49
2023/04/23 04:54:17;;;;;;;;;;;8.10;99.90;;;;;;5068117;28;20102;-50
2023/04/23 04:56:43;;;;;;;;;;;8.10;99.90;;;;;;5074381;28;20349;-52
2023/04/23 04:59:10;;;;;;;;;;;8.10;99.90;;;;;;5064011;28;20367;-51
2023/04/23 05:01:36;;;;;;;;;;;8.20;99.90;;;;;;5042403;28;19987;-53
2023/04/23 05:04:03;;;;;;;;;;;8.20;99.90;;;;;;5035336;28;20031;-54
2023/04/23 05:06:32;;;;;;;;;;;8.20;99.90;;;;;;5047589;28;19935;-53
2023/04/23 05:08:58;;;;;;;;;;;8.30;99.90;;;;;;5064692;28;19983;-51
2023/04/23 05:11:25;;;;;;;;;;;8.30;99.90;;;;;;5053570;28;20351;-52
2023/04/23 05:13:51;;;;;;;;;;;8.30;99.90;;;;;;5065710;28;19961;-51
2023/04/23 05:16:18;;;;;;;;;;;8.30;99.90;;;;;;5051054;28;20016;-43
2023/04/23 05:18:45;;;;;;;;;;;8.40;99.90;;;;;;5050276;28;20382;-53
2023/04/23 05:21:12;;;;;;;;;;;8.40;99.90;;;;;;5054962;28;20018;-53
2023/04/23 05:23:39;;;;;;;;;;;8.40;99.90;;;;;;5053110;28;19987;-49
2023/04/23 05:26:06;;;;;;;;;;;8.40;99.90;;;;;;5067981;28;19990;-47
2023/04/23 05:28:33;;;;;;;;;;;8.50;99.90;;;;;;5053259;28;20355;-48
2023/04/23 05:30:59;;;;;;;;;;;8.50;99.90;;;;;;5053609;28;20045;-49
2023/04/23 05:33:27;;;;;;;;;;;8.50;99.90;;;;;;5052122;28;19939;-50
2023/04/23 05:35:53;;;;;;;;;;;8.50;99.90;;;;;;5049123;28;19933;-52
2023/04/23 05:38:20;;;;;;;;;;;8.60;99.90;;;;;;5051350;28;19980;-53
2023/04/23 05:40:48;;;;;;;;;;;8.60;99.90;;;;;;5051364;28;19983;-49
2023/04/23 05:43:15;;;;;;;;;;;8.60;99.90;;;;;;5052966;28;19938;-52
2023/04/23 05:45:42;;;;;;;;;;;8.60;99.90;;;;;;5048501;28;19980;-53
2023/04/23 05:48:09;;;;;;;;;;;8.70;99.90;;;;;;5034627;28;19936;-53
2023/04/23 05:50:36;;;;;;;;;;;8.70;99.90;;;;;;5059955;28;19953;-53
2023/04/23 05:53:02;;;;;;;;;;;8.80;99.90;;;;;;5073587;28;19939;-49
2023/04/23 05:55:29;;;;;;;;;;;8.80;99.90;;;;;;5053955;28;19937;-51
2023/04/23 05:57:57;;;;;;;;;;;8.90;99.90;;;;;;5056183;28;20306;-53
2023/04/23 06:00:24;;;;;;;;;;;8.90;99.90;;;;;;5051716;28;20005;-48
2023/04/23 06:02:50;;;;;;;;;;;8.90;99.90;;;;;;5049369;28;19981;-50
2023/04/23 06:05:17;;;;;;;;;;;9.00;99.90;;;;;;5050166;28;20040;-53
2023/04/23 06:07:44;;;;;;;;;;;9.20;99.90;;;;;;5048580;28;19976;-49
2023/04/23 06:10:11;;;;;;;;;;;9.20;99.90;;;;;;5052972;28;20448;-51
2023/04/23 06:12:38;;;;;;;;;;;9.30;99.90;;;;;;5051315;28;19940;-49
2023/04/23 06:15:07;;;;;;;;;;;9.30;99.90;;;;;;5051409;28;19935;-50
2023/04/23 06:17:34;;;;;;;;;;;9.40;99.90;;;;;;5059364;28;20002;-53
2023/04/23 06:20:01;;;;;;;;;;;9.50;99.90;;;;;;5060170;28;20003;-50
2023/04/23 06:22:27;;;;;;;;;;;9.50;99.90;;;;;;5049051;28;19978;-51
2023/04/23 06:24:54;;;;;;;;;;;9.60;99.90;;;;;;5050820;28;20030;-50
2023/04/23 06:27:20;;;;;;;;;;;9.70;99.90;;;;;;5066044;28;19933;-52
2023/04/23 06:29:47;;;;;;;;;;;9.80;99.90;;;;;;5040475;28;19941;-49
2023/04/23 06:32:15;;;;;;;;;;;9.80;99.90;;;;;;5047725;28;19949;-49
2023/04/23 06:34:42;;;;;;;;;;;9.80;99.90;;;;;;5046422;28;20294;-43
2023/04/23 06:37:09;;;;;;;;;;;9.90;99.90;;;;;;5048594;28;20388;-50
2023/04/23 06:39:35;;;;;;;;;;;10.00;99.90;;;;;;5049613;28;19974;-50
2023/04/23 06:42:02;;;;;;;;;;;10.20;99.90;;;;;;5044007;28;19967;-48
2023/04/23 06:44:28;;;;;;;;;;;10.20;99.90;;;;;;5043838;28;19935;-46
2023/04/23 06:46:55;;;;;;;;;;;10.40;99.90;;;;;;5049595;28;20378;-46
2023/04/23 06:49:23;;;;;;;;;;;10.50;99.90;;;;;;5062000;28;19964;-48
2023/04/23 06:51:50;;;;;;;;;;;10.60;99.90;;;;;;5055699;28;20042;-49
2023/04/23 06:54:16;;;;;;;;;;;10.70;99.90;;;;;;5049409;28;19982;-47
2023/04/23 06:56:43;;;;;;;;;;;10.80;99.90;;;;;;5062230;28;19981;-50
2023/04/23 06:59:09;;;;;;;;;;;10.80;99.90;;;;;;5062535;28;20406;-49
2023/04/23 07:01:36;;;;;;;;;;;11.00;99.90;;;;;;5049193;28;19941;-47
2023/04/23 07:04:03;;;;;;;;;;;11.00;99.90;;;;;;5045354;28;19961;-43
2023/04/23 07:06:33;;;;;;;;;;;11.10;99.90;;;;;;5039790;28;19988;-47
2023/04/23 07:08:59;;;;;;;;;;;11.30;99.90;;;;;;5057008;28;19933;-45
2023/04/23 07:11:26;;;;;;;;;;;11.40;99.90;;;;;;5050158;28;20263;-46
2023/04/23 07:13:52;;;;;;;;;;;11.50;99.90;;;;;;5061268;28;19966;-47
2023/04/23 07:16:21;;;;;;;;;;;11.40;99.90;;;;;;5047693;28;19994;-43
2023/04/23 07:18:48;;;;;;;;;;;11.60;99.90;;;;;;5044200;28;20430;-48
2023/04/23 07:21:15;;;;;;;;;;;11.70;99.90;;;;;;5063261;28;19940;-46
2023/04/23 07:23:43;;;;;;;;;;;11.80;99.90;;;;;;5041218;28;20016;-47
2023/04/23 07:26:10;;;;;;;;;;;11.80;99.90;;;;;;5053530;28;20057;-45
2023/04/23 07:28:37;;;;;;;;;;;11.90;99.90;;;;;;5043489;28;19937;-45
2023/04/23 07:31:04;;;;;;;;;;;12.00;99.90;;;;;;5050793;28;19974;-47
2023/04/23 07:33:30;;;;;;;;;;;12.10;99.90;;;;;;5039732;28;19944;-45
2023/04/23 07:35:57;;;;;;;;;;;12.20;99.90;;;;;;5067066;28;19989;-49
2023/04/23 07:38:23;;;;;;;;;;;12.30;99.90;;;;;;5063547;28;20458;-48
2023/04/23 07:40:51;;;;;;;;;;;12.40;99.90;;;;;;5052841;28;19985;-47
2023/04/23 07:43:18;;;;;;;;;;;12.40;99.90;;;;;;5047314;28;20000;-50
2023/04/23 07:45:45;;;;;;;;;;;12.70;99.90;;;;;;5063147;28;19987;-45
2023/04/23 07:48:11;;;;;;;;;;;12.80;99.90;;;;;;5071389;28;20030;-46
2023/04/23 07:50:38;;;;;;;;;;;12.90;99.90;;;;;;5051664;28;19997;-48
2023/04/23 07:53:04;;;;;;;;;;;13.00;99.90;;;;;;5052401;28;20412;-46
2023/04/23 07:55:31;;;;;;;;;;;13.10;99.90;;;;;;5052202;28;19937;-43
2023/04/23 07:57:59;;;;;;;;;;;13.30;99.90;;;;;;5051184;28;19944;-46
2023/04/23 08:00:26;;;;;;;;;;;13.60;99.90;;;;;;5051890;28;20027;-46
2023/04/23 08:02:53;;;;;;;;;;;13.70;99.90;;;;;;5051091;28;19941;-42
2023/04/23 08:05:20;;;;;;;;;;;13.70;99.90;;;;;;5051981;28;19940;-45
2023/04/23 08:07:46;;;;;;;;;;;13.70;99.90;;;;;;5048013;28;19931;-48
2023/04/23 08:10:13;;;;;;;;;;;13.80;99.90;;;;;;5052811;28;19959;-44
2023/04/23 08:12:39;;;;;;;;;;;14.00;99.90;;;;;;5069298;28;20412;-45
2023/04/23 08:15:08;;;;;;;;;;;14.10;99.90;;;;;;5044958;28;20004;-43
2023/04/23 08:17:35;;;;;;;;;;;14.30;99.90;;;;;;5040591;28;19939;-42
2023/04/23 08:20:02;;;;;;;;;;;14.60;99.90;;;;;;5062313;28;19997;-47
2023/04/23 08:22:29;;;;;;;;;;;14.70;99.90;;;;;;5056899;28;19948;-47
2023/04/23 08:24:55;;;;;;;;;;;15.00;99.90;;;;;;5051347;28;19931;-46
2023/04/23 08:27:22;;;;;;;;;;;15.10;99.90;;;;;;5055062;28;20027;-44
2023/04/23 08:29:49;;;;;;;;;;;15.20;99.90;;;;;;5050984;28;20040;-47
2023/04/23 08:32:17;;;;;;;;;;;15.30;99.90;;;;;;5054529;28;20281;-45
2023/04/23 08:34:43;;;;;;;;;;;15.30;99.90;;;;;;5048049;28;20018;-42
2023/04/23 08:37:10;;;;;;;;;;;15.50;99.90;;;;;;5051951;28;19941;-47
2023/04/23 08:39:36;;;;;;;;;;;15.60;99.90;;;;;;5061785;28;19935;-43
2023/04/23 08:42:04;;;;;;;;;;;15.70;99.90;;;;;;5070588;28;19936;-48
2023/04/23 08:44:31;;;;;;;;;;;15.80;99.90;;;;;;5051862;28;20386;-43
2023/04/23 08:46:58;;;;;;;;;;;16.00;99.90;;;;;;5050223;28;19985;-42
2023/04/23 08:49:28;;;;;;;;;;;16.20;99.90;;;;;;5053238;28;19984;-44
2023/04/23 08:51:55;;;;;;;;;;;16.30;99.90;;;;;;5063839;28;20375;-43
2023/04/23 08:54:22;;;;;;;;;;;16.50;99.90;;;;;;5054059;28;19937;-43
2023/04/23 08:56:49;;;;;;;;;;;16.60;99.90;;;;;;5058181;28;19935;-42
2023/04/23 08:59:17;;;;;;;;;;;16.70;99.90;;;;;;5049173;28;19973;-44
2023/04/23 09:01:43;;;;;;;;;;;16.80;99.90;;;;;;5057207;28;19982;-43
2023/04/23 09:04:10;;;;;;;;;;;16.90;99.90;;;;;;5041451;28;20263;-43
2023/04/23 09:06:38;;;;;;;;;;;17.00;99.90;;;;;;5053341;28;19932;-46
2023/04/23 09:09:06;;;;;;;;;;;17.00;99.90;;;;;;5065736;28;19942;-43
2023/04/23 09:11:32;;;;;;;;;;;17.20;99.90;;;;;;5052161;28;20412;-44
2023/04/23 09:14:00;;;;;;;;;;;17.20;99.90;;;;;;5054366;28;20322;-45
2023/04/23 09:16:26;;;;;;;;;;;17.20;99.90;;;;;;5054301;28;19942;-45
2023/04/23 09:18:53;;;;;;;;;;;17.30;99.90;;;;;;5049556;28;20345;-43
2023/04/23 09:21:20;;;;;;;;;;;17.30;99.90;;;;;;5054248;28;19938;-43
2023/04/23 09:23:48;;;;;;;;;;;17.20;99.90;;;;;;5057437;28;20429;-43
2023/04/23 09:26:18;;;;;;;;;;;17.10;99.90;;;;;;5058362;28;19938;-46
2023/04/23 09:28:45;;;;;;;;;;;17.00;99.90;;;;;;5042577;28;19989;-43
2023/04/23 09:31:11;;;;;;;;;;;17.10;99.90;;;;;;5058796;28;20430;-45
2023/04/23 09:33:38;;;;;;;;;;;17.10;99.90;;;;;;5050643;28;19973;-44
2023/04/23 09:36:05;;;;;;;;;;;17.10;99.90;;;;;;5051346;28;19939;-42
2023/04/23 09:38:33;;;;;;;;;;;17.20;99.90;;;;;;5048850;28;19933;-45
2023/04/23 09:41:01;;;;;;;;;;;17.40;99.90;;;;;;5050406;28;19934;-42
2023/04/23 09:43:29;;;;;;;;;;;17.50;99.90;;;;;;5065563;28;19992;-43
2023/04/23 09:45:56;;;;;;;;;;;17.50;99.90;;;;;;5062570;28;20041;-42
2023/04/23 09:48:23;;;;;;;;;;;17.50;99.90;;;;;;5052611;28;20027;-41
2023/04/23 09:50:49;;;;;;;;;;;17.60;99.90;;;;;;5051188;28;19937;-45
2023/04/23 09:53:16;;;;;;;;;;;17.50;99.90;;;;;;5052200;28;20041;-43
2023/04/23 09:55:43;;;;;;;;;;;17.60;99.90;;;;;;5051236;28;19985;-43
2023/04/23 09:58:12;;;;;;;;;;;17.60;99.90;;;;;;5049434;28;19976;-45
2023/04/23 10:00:39;;;;;;;;;;;17.80;99.90;;;;;;5054204;28;19947;-47
2023/04/23 10:03:06;;;;;;;;;;;17.90;99.90;;;;;;5053251;28;19937;-44
2023/04/23 10:05:33;;;;;;;;;;;18.00;99.90;;;;;;5054151;28;20354;-43
2023/04/23 10:08:00;;;;;;;;;;;18.00;99.90;;;;;;5052339;28;19976;-47
2023/04/23 10:10:26;;;;;;;;;;;17.90;99.90;;;;;;5053748;28;19943;-43
2023/04/23 10:12:53;;;;;;;;;;;17.90;99.90;;;;;;5051540;28;19992;-41
2023/04/23 10:15:21;;;;;;;;;;;17.80;99.90;;;;;;5053858;28;19985;-43
2023/04/23 10:17:49;;;;;;;;;;;17.70;99.90;;;;;;5052852;28;19935;-41
2023/04/23 10:20:16;;;;;;;;;;;17.80;99.90;;;;;;5052259;28;19971;-41
2023/04/23 10:22:44;;;;;;;;;;;18.00;99.90;;;;;;5051790;28;19998;-42
2023/04/23 10:25:11;;;;;;;;;;;18.20;99.90;;;;;;5052077;28;19996;-41
2023/04/23 10:27:38;;;;;;;;;;;18.30;99.90;;;;;;5048739;28;19942;-43
2023/04/23 10:30:05;;;;;;;;;;;18.50;99.90;;;;;;5049461;28;19941;-40
2023/04/23 10:32:33;;;;;;;;;;;18.80;99.90;;;;;;5048267;28;19974;-42
2023/04/23 10:35:00;;;;;;;;;;;19.00;99.90;;;;;;5057697;28;19998;-44
2023/04/23 10:37:27;;;;;;;;;;;19.00;99.90;;;;;;5046555;28;19935;-44
2023/04/23 10:39:54;;;;;;;;;;;19.00;99.90;;;;;;5061224;28;20036;-44
2023/04/23 10:42:20;;;;;;;;;;;18.80;99.90;;;;;;5047284;28;19970;-42
2023/04/23 10:44:47;;;;;;;;;;;18.90;99.90;;;;;;5042469;28;19934;-42
2023/04/23 10:47:14;;;;;;;;;;;19.00;99.90;;;;;;5054763;28;19992;-44
2023/04/23 10:49:42;;;;;;;;;;;19.10;99.90;;;;;;5050771;28;19941;-43
2023/04/23 10:52:09;;;;;;;;;;;19.10;99.90;;;;;;5049096;28;20028;-42
2023/04/23 10:54:35;;;;;;;;;;;19.20;99.90;;;;;;5043409;28;20349;-42
2023/04/23 10:57:03;;;;;;;;;;;19.40;99.90;;;;;;5052117;28;19940;-43
2023/04/23 10:59:30;;;;;;;;;;;19.50;99.90;;;;;;5032043;28;19942;-43
2023/04/23 11:01:58;;;;;;;;;;;19.70;99.90;;;;;;5046001;28;19973;-44
2023/04/23 11:04:25;;;;;;;;;;;19.80;99.90;;;;;;5066504;28;20350;-42
2023/04/23 11:06:54;;;;;;;;;;;19.70;98.80;;;;;;5053556;28;19939;-40
2023/04/23 11:09:30;;;;;;;;;;;19.60;99.00;;;;;;5059768;28;19938;-42
2023/04/23 11:11:57;;;;;;;;;;;19.50;99.20;;;;;;5045121;28;19969;-42
2023/04/23 11:14:34;;;;;;;;;;;19.50;99.90;;;;;;5055447;28;19947;-42
2023/04/23 11:17:01;;;;;;;;;;;19.70;98.80;;;;;;5052826;28;20384;-41
2023/04/23 11:19:28;;;;;;;;;;;19.70;96.00;;;;;;5053170;28;20385;-42
2023/04/23 11:21:57;;;;;;;;;;;19.70;96.20;;;;;;5051426;28;20019;-42
2023/04/23 11:24:24;;;;;;;;;;;19.70;96.40;;;;;;5050759;28;20019;-41
2023/04/23 11:26:51;;;;;;;;;;;19.70;97.00;;;;;;5051094;28;19937;-41
2023/04/23 11:29:17;;;;;;;;;;;19.90;99.60;;;;;;5048861;28;19940;-44
2023/04/23 11:31:44;;;;;;;;;;;20.00;97.00;;;;;;5065905;28;20211;-42
2023/04/23 11:34:11;;;;;;;;;;;20.10;95.80;;;;;;5049110;28;19935;-43
2023/04/23 11:36:37;;;;;;;;;;;20.00;94.90;;;;;;5050712;28;20383;-42
2023/04/23 11:39:06;;;;;;;;;;;19.90;93.80;;;;;;5048760;28;19933;-45
2023/04/23 11:41:34;;;;;;;;;;;19.70;94.80;;;;;;5066825;28;19997;-41
2023/04/23 11:44:00;;;;;;;;;;;19.80;97.60;;;;;;5052255;28;19941;-40
2023/04/23 11:46:27;;;;;;;;;;;19.90;99.30;;;;;;5052100;28;20025;-41
2023/04/23 11:48:53;;;;;;;;;;;20.10;97.90;;;;;;5050574;28;19989;-42
2023/04/23 11:51:24;;;;;;;;;;;20.20;94.00;;;;;;5050993;28;19944;-41
2023/04/23 11:53:51;;;;;;;;;;;20.30;93.30;;;;;;5052068;28;19960;-43
2023/04/23 11:56:20;;;;;;;;;;;20.40;94.10;;;;;;5051436;28;19961;-45
2023/04/23 11:58:46;;;;;;;;;;;20.40;93.40;;;;;;5049084;28;19985;-41
2023/04/23 12:01:13;;;;;;;;;;;20.40;91.10;;;;;;5050620;28;19940;-41
2023/04/23 12:03:40;;;;;;;;;;;20.20;91.30;;;;;;5051747;28;20013;-41
2023/04/23 12:06:06;;;;;;;;;;;20.20;91.30;;;;;;5051729;28;19933;-41
2023/04/23 12:08:34;;;;;;;;;;;20.20;92.00;;;;;;5051978;28;19988;-42
2023/04/23 12:11:01;;;;;;;;;;;20.30;92.60;;;;;;5050865;28;19946;-42
2023/04/23 12:13:30;;;;;;;;;;;20.30;92.90;;;;;;5051642;28;19998;-43
2023/04/23 12:15:57;;;;;;;;;;;20.20;90.20;;;;;;5051533;28;19936;-41
2023/04/23 12:18:27;;;;;;;;;;;20.10;90.90;;;;;;5051594;28;19937;-42
2023/04/23 12:20:53;;;;;;;;;;;20.10;90.10;;;;;;5049953;28;19945;-43
2023/04/23 12:23:25;;;;;;;;;;;20.00;91.10;;;;;;5052177;28;19939;-41
2023/04/23 12:25:53;;;;;;;;;;;20.10;91.50;;;;;;5051183;28;19931;-43
2023/04/23 12:28:22;;;;;;;;;;;20.20;90.80;;;;;;5050882;28;20038;-42
2023/04/23 12:30:50;;;;;;;;;;;20.20;90.70;;;;;;5050939;28;19937;-40
2023/04/23 12:33:16;;;;;;;;;;;20.20;90.90;;;;;;5051132;28;20000;-42
2023/04/23 12:35:44;;;;;;;;;;;20.30;91.60;;;;;;5051294;28;20356;-45
2023/04/23 12:38:21;;;;;;;;;;;20.30;91.90;;;;;;5051992;28;20323;-40
2023/04/23 12:40:47;;;;;;;;;;;20.30;92.60;;;;;;5050850;28;19962;-41
2023/04/23 12:43:14;;;;;;;;;;;20.30;91.10;;;;;;5051697;28;19983;-42
2023/04/23 12:45:41;;;;;;;;;;;20.30;91.70;;;;;;5050978;28;19937;-42
2023/04/23 12:48:09;;;;;;;;;;;20.30;90.20;;;;;;5047779;28;19945;-40
2023/04/23 12:50:36;;;;;;;;;;;20.20;85.90;;;;;;5052956;28;19981;-41
2023/04/23 12:53:03;;;;;;;;;;;19.90;86.40;;;;;;5047101;28;19949;-41
2023/04/23 12:55:29;;;;;;;;;;;19.80;88.80;;;;;;5045174;28;19936;-40
2023/04/23 12:57:56;;;;;;;;;;;19.70;90.80;;;;;;5048731;28;19974;-42
2023/04/23 13:00:23;;;;;;;;;;;19.70;91.40;;;;;;5049635;28;19931;-41
2023/04/23 13:02:49;;;;;;;;;;;19.70;86.10;;;;;;5053103;28;20058;-43
2023/04/23 13:05:17;;;;;;;;;;;19.60;90.80;;;;;;5061675;28;19924;-42
2023/04/23 13:07:44;;;;;;;;;;;19.60;89.00;;;;;;5067294;28;20021;-40
2023/04/23 13:10:10;;;;;;;;;;;19.60;90.00;;;;;;5052906;28;20364;-40
2023/04/23 13:12:37;;;;;;;;;;;19.60;88.30;;;;;;5052646;28;20316;-41
2023/04/23 13:15:04;;;;;;;;;;;19.60;87.40;;;;;;5053033;28;20371;-41
2023/04/23 13:17:31;;;;;;;;;;;19.70;89.00;;;;;;5051898;28;19944;-41
2023/04/23 13:19:58;;;;;;;;;;;19.80;85.00;;;;;;5051853;28;19998;-39
2023/04/23 13:22:27;;;;;;;;;;;19.90;84.10;;;;;;5053178;28;20004;-41
2023/04/23 13:24:55;;;;;;;;;;;20.00;87.10;;;;;;5051541;28;20066;-41
2023/04/23 13:27:22;;;;;;;;;;;20.20;82.30;;;;;;5054253;28;19997;-42
2023/04/23 13:29:48;;;;;;;;;;;20.20;82.00;;;;;;5054263;28;20357;-40
2023/04/23 13:32:16;;;;;;;;;;;20.30;82.90;;;;;;5054013;28;20464;-40
2023/04/23 13:34:42;;;;;;;;;;;20.40;81.60;;;;;;5049646;28;20424;-41
2023/04/23 13:37:09;;;;;;;;;;;20.40;82.50;;;;;;5052853;28;19932;-41
2023/04/23 13:39:37;;;;;;;;;;;20.40;80.60;;;;;;5059671;28;20040;-44
2023/04/23 13:42:04;;;;;;;;;;;20.30;84.50;;;;;;5056761;28;19992;-40
2023/04/23 13:44:30;;;;;;;;;;;20.40;87.90;;;;;;5066668;28;20130;-40
2023/04/23 13:46:58;;;;;;;;;;;20.40;83.70;;;;;;5052038;28;19978;-41
2023/04/23 13:49:27;;;;;;;;;;;20.40;82.40;;;;;;5052355;28;20312;-40
2023/04/23 13:51:57;;;;;;;;;;;20.30;83.50;;;;;;5051668;28;19995;-41
2023/04/23 13:54:26;;;;;;;;;;;20.30;85.10;;;;;;5053610;28;19957;-43
2023/04/23 13:56:54;;;;;;;;;;;20.20;84.50;;;;;;5053112;28;20390;-41
2023/04/23 13:59:21;;;;;;;;;;;20.20;86.80;;;;;;5053145;28;19948;-41
2023/04/23 14:01:48;;;;;;;;;;;20.20;82.50;;;;;;5052684;28;19985;-41
2023/04/23 14:04:15;;;;;;;;;;;20.20;81.80;;;;;;5060565;28;19937;-41
2023/04/23 14:06:41;;;;;;;;;;;20.20;84.20;;;;;;5053794;28;20296;-43
2023/04/23 14:09:08;;;;;;;;;;;20.20;85.40;;;;;;5052812;28;20068;-40
2023/04/23 14:11:36;;;;;;;;;;;20.30;83.80;;;;;;5054836;28;20313;-41
2023/04/23 14:14:04;;;;;;;;;;;20.40;81.50;;;;;;5049353;28;19921;-39
2023/04/23 14:16:30;;;;;;;;;;;20.50;85.40;;;;;;5054407;28;20372;-40
2023/04/23 14:18:57;;;;;;;;;;;20.60;85.20;;;;;;5071001;28;19963;-41
2023/04/23 14:21:24;;;;;;;;;;;20.80;79.70;;;;;;5063370;28;19940;-40